May 23, 2022

Time Code Weather Temp. Visibility Clouds Wind METAR/SPECI
3:53 am
V
46 °F 10 mi - 340°   340° 5 kt METAR KMSS 230753Z AUTO 34005KT 10SM CLR 08/04 A3025 RMK AO2 SLP247 T00780044
2:53 am
V
46 °F 10 mi - 350°   350° 5 kt METAR KMSS 230653Z AUTO 35005KT 10SM CLR 08/06 A3025 RMK AO2 SLP246 T00830056
1:53 am
V
48 °F 10 mi - 360°   360° 3 kt METAR KMSS 230553Z AUTO 36003KT 10SM CLR 09/06 A3023 RMK AO2 SLP238 T00940056 10128 20094 51010
12:53 am
V
52 °F 10 mi 4,100 ft Var   000° 0 kt METAR KMSS 230453Z AUTO 00000KT 10SM FEW028 OVC041 11/09 A3023 RMK AO2 SLP236 T01060089 402440106

May 22, 2022

Time Code Weather Temp. Visibility Clouds Wind METAR/SPECI
11:53 pm
V
54 °F 10 mi 4,000 ft 280°   280° 6 kt METAR KMSS 230353Z AUTO 28006KT 10SM OVC040 12/09 A3021 RMK AO2 SLP231 T01170089
10:53 pm
V
52 °F 10 mi 4,300 ft Var   000° 0 kt METAR KMSS 230253Z AUTO 00000KT 10SM OVC043 11/09 A3020 RMK AO2 SLP227 T01110089 51030
9:53 pm
V
52 °F 10 mi 3,600 ft 280°   280° 3 kt METAR KMSS 230153Z AUTO 28003KT 10SM BKN036 11/08 A3018 RMK AO2 SLP220 T01110083
8:53 pm
V
54 °F 10 mi - 290°   290° 8 kt METAR KMSS 230053Z AUTO 29008KT 10SM SCT036 12/09 A3015 RMK AO2 SLP209 T01170089
8:40 pm
V
54 °F 10 mi 3,300 ft 300°   300° 7 kt METAR KMSS 230040Z AUTO 30007KT 10SM FEW025 BKN033 BKN041 12/09 A3014 RMK AO2 T01220089
6:53 pm
M
55 °F 10 mi 2,000 ft 260°   260° 7 kt METAR KMSS 222253Z AUTO 26007KT 10SM FEW008 BKN020 OVC025 13/12 A3008 RMK AO2 RAB23E34 SLP187 P0000 T01330122
6:38 pm
M
55 °F 10 mi 1,500 ft 260°   260° 9 kt METAR KMSS 222238Z AUTO 26009KT 10SM SCT010 BKN015 OVC021 13/12 A3008 RMK AO2 RAB23E34 PRESRR P0000 T01330122
5:53 pm
M
55 °F 10 mi 1,300 ft 230°   230° 5 kt METAR KMSS 222153Z AUTO 23005KT 10SM FEW005 BKN013 OVC020 13/12 A3003 RMK AO2 RAE49 SLP170 P0005 T01330122
5:25 pm
I
55 °F 3 mi 1,400 ft 210°   210° 6 kt METAR KMSS 222125Z AUTO 21006KT 3SM -RA BR FEW007 BKN014 OVC044 13/12 A3001 RMK AO2 P0005 T01330122
5:16 pm
I
55 °F 1¾ mi 1,100 ft 210°   210° 6 kt METAR KMSS 222116Z AUTO 21006KT 1 3/4SM RA BR FEW006 BKN011 OVC042 13/12 A3001 RMK AO2 P0005 T01330122
5:10 pm
I
55 °F 2 mi 3,200 ft 220°   220° 5 kt METAR KMSS 222110Z AUTO 22005KT 2SM -RA BR SCT008 BKN032 OVC041 13/12 A3002 RMK AO2 P0003 T01330122
5:06 pm
I
55 °F 1¾ mi 3,000 ft 220°   220° 5 kt METAR KMSS 222106Z AUTO 22005KT 1 3/4SM -RA BR SCT010 BKN030 OVC041 13/12 A3002 RMK AO2 P0002 T01330122
5:02 pm
I
55 °F 1¾ mi 1,400 ft 220°   220° 3 kt METAR KMSS 222102Z AUTO 22003KT 1 3/4SM RA BR SCT010 BKN014 OVC031 13/12 A3002 RMK AO2 P0002 T01330122
4:53 pm
I
55 °F 2½ mi 1,400 ft 260°   260° 8 kt METAR KMSS 222053Z AUTO 26008KT 2 1/2SM RA BR SCT010 BKN014 OVC031 13/12 A3003 RMK AO2 PRESRR SLP168 P0003 60005 T01330122 51017
4:26 pm
V
57 °F 10 mi 3,000 ft 280°   280° 7 kt METAR KMSS 222026Z AUTO 28007KT 10SM -RA SCT016 OVC030 14/12 A3000 RMK AO2 P0000 T01390122
3:53 pm
M
57 °F 10 mi 2,600 ft 290°   290° 8 kt METAR KMSS 221953Z AUTO 29008KT 10SM -RA SCT014 OVC026 14/12 A3000 RMK AO2 RAE28B49 SLP160 P0001 T01390122
3:22 pm
M
57 °F 10 mi 1,300 ft 290°   290° 8 kt METAR KMSS 221922Z AUTO 29008KT 10SM -RA BKN013 OVC022 14/13 A2998 RMK AO2 P0001 T01440128
3:10 pm
M
57 °F 4 mi 2,200 ft 300°   300° 10 kt METAR KMSS 221910Z AUTO 30010KT 4SM -RA BR SCT011 OVC022 14/13 A2998 RMK AO2 P0001 T01440128
2:53 pm
M
59 °F 10 mi 1,000 ft 300°   300° 15 20 kt METAR KMSS 221853Z AUTO 30015G20KT 10SM -RA BKN010 OVC027 15/13 A2997 RMK AO2 PK WND 28030/1808 WSHFT 1800 RAB11 CIG 009V013 PRESRR SLP151 P0001 T01500128
2:14 pm
M
64 °F 7 mi 2,900 ft 310°   310° 19 30 kt METAR KMSS 221814Z AUTO 31019G30KT 7SM -RA SCT024 BKN029 OVC037 18/15 A2993 RMK AO2 PK WND 28030/1808 WSHFT 1800 RAB11 PRESRR P0000 T01830150
1:53 pm
V
75 °F 10 mi 3,400 ft 240°   240° 12 20 kt METAR KMSS 221753Z AUTO 24012G20KT 10SM BKN034 BKN045 OVC049 24/18 A2990 RMK AO2 SLP123 T02390178 10244 20183 55009
12:53 pm
V
75 °F 10 mi - 230°   230° 10 kt METAR KMSS 221653Z AUTO 23010KT 10SM SCT042 SCT110 24/18 A2989 RMK AO2 SLP121 T02440183
11:53 am
V
75 °F 10 mi - 220°   220° 14 kt METAR KMSS 221553Z AUTO 22014KT 10SM FEW026 SCT110 24/18 A2990 RMK AO2 SLP124 T02390183
10:53 am
V
73 °F 10 mi - 200°   200° 13 kt METAR KMSS 221453Z AUTO 20013KT 10SM FEW024 23/18 A2992 RMK AO2 SLP132 T02330178 58017
10:01 am
V
70 °F 10 mi - 210°   210° 9 kt METAR KMSS 221401Z AUTO 21009KT 10SM SCT016 21/17 A2995 RMK AO2 T02060172
9:53 am
M
70 °F 10 mi 1,600 ft 220°   220° 11 kt METAR KMSS 221353Z AUTO 22011KT 10SM BKN016 21/17 A2995 RMK AO2 SLP140 T02060172
9:23 am
M
68 °F 10 mi 1,500 ft 200°   200° 12 kt METAR KMSS 221323Z AUTO 20012KT 10SM OVC015 20/17 A2996 RMK AO2 T02000172
8:53 am
M
66 °F 10 mi 1,000 ft 230°   230° 8 kt METAR KMSS 221253Z AUTO 23008KT 10SM BKN010 19/17 A2996 RMK AO2 CIG 009V015 SLP146 T01890167
7:53 am
M
64 °F 10 mi 1,000 ft 220°   220° 10 kt METAR KMSS 221153Z AUTO 22010KT 10SM BKN010 BKN013 18/17 A2997 RMK AO2 CIG 008V012 SLP149 60000 70002 T01830167 10189 20172 51012
7:30 am
V
64 °F 10 mi - 220°   220° 8 kt METAR KMSS 221130Z AUTO 22008KT 10SM SCT007 18/17 A2997 RMK AO2 T01830167
7:22 am
I
64 °F 10 mi 700 ft 220°   220° 7 kt METAR KMSS 221122Z AUTO 22007KT 10SM BKN007 18/17 A2996 RMK AO2 T01780167
6:53 am
V
64 °F 10 mi - 250°   250° 8 kt METAR KMSS 221053Z AUTO 25008KT 10SM SCT007 18/17 A2997 RMK AO2 SLP146 T01780167
6:35 am
V
64 °F 10 mi - 240°   240° 8 kt METAR KMSS 221035Z AUTO 24008KT 10SM FEW007 18/17 A2996 RMK AO2 T01780167
5:53 am
V
63 °F 10 mi - 210°   210° 5 kt METAR KMSS 220953Z AUTO 21005KT 10SM CLR 17/17 A2994 RMK AO2 SLP137 T01720167
4:53 am
V
64 °F 10 mi - 240°   240° 5 kt METAR KMSS 220853Z AUTO 24005KT 10SM FEW120 18/17 A2995 RMK AO2 SLP140 60000 T01780167 58009
3:53 am
V
64 °F 10 mi 3,100 ft 230°   230° 6 kt METAR KMSS 220753Z AUTO 23006KT 10SM OVC031 18/17 A2997 RMK AO2 RAB44E53 SLP148 P0000 T01780172
2:53 am
V
64 °F 8 mi - 200°   200° 10 kt METAR KMSS 220653Z AUTO 20010KT 8SM FEW110 18/17 A2996 RMK AO2 RAE00 SLP142 P0000 T01780172
1:53 am
V
66 °F 10 mi - 160°   160° 8 kt METAR KMSS 220553Z AUTO 16008KT 10SM -RA FEW090 SCT110 19/18 A2998 RMK AO2 RAB12 SLP148 P0002 60002 T01890178 10239 20178 50003
12:53 am
V
66 °F 10 mi - 220°   220° 5 kt METAR KMSS 220453Z AUTO 22005KT 10SM FEW042 SCT110 19/18 A3002 RMK AO2 SLP163 T01940178 403000178

May 21, 2022

Time Code Weather Temp. Visibility Clouds Wind METAR/SPECI
11:53 pm
V
64 °F 10 mi 7,000 ft Var   000° 0 kt METAR KMSS 220353Z AUTO 00000KT 10SM BKN070 BKN100 18/17 A2998 RMK AO2 LTG DSNT SE AND SW SLP150 T01830172
10:53 pm
V
64 °F 10 mi - 300°   300° 3 kt METAR KMSS 220253Z AUTO 30003KT 10SM FEW037 SCT075 SCT100 18/17 A2997 RMK AO2 LTG DSNT S RAB34E45 SLP146 P0000 60000 T01830172 53016
9:53 pm
V
70 °F 10 mi - 230°   230° 4 kt METAR KMSS 220153Z AUTO 23004KT 10SM SCT075 21/17 A2995 RMK AO2 SLP140 T02060172
8:53 pm
V
72 °F 10 mi - 220°   220° 4 kt METAR KMSS 220053Z AUTO 22004KT 10SM SCT090 22/16 A2992 RMK AO2 SLP130 T02170161
7:53 pm
M
55 °F 10 mi 1,700 ft 270°   270° 10 kt METAR KMSS 222353Z AUTO 27010KT 10SM BKN017 OVC030 13/11 A3011 RMK AO2 RAB2258E09 SLP198 P0000 60010 T01280111 10233 20128 53029
6:53 pm
V
75 °F 10 mi - 250°   250° 8 kt METAR KMSS 212253Z AUTO 25008KT 10SM FEW055 24/18 A2992 RMK AO2 SLP131 T02440183
5:53 pm
V
75 °F 10 mi - 210°   210° 8 kt METAR KMSS 212153Z AUTO 21008KT 10SM CLR 24/20 A2991 RMK AO2 SLP128 T02390200
4:53 pm
V
79 °F 10 mi 11,000 ft 250°   250° 10 31 kt METAR KMSS 212053Z AUTO 25010G31KT 10SM FEW050 SCT080 BKN110 26/17 A2987 RMK AO2 PK WND 23037/2009 LTG DSNT ALQDS RAB40E53 PRESFR SLP112 P0000 60000 T02610167 51009
3:53 pm
V
84 °F 10 mi - 220°   220° 22 30 kt METAR KMSS 211953Z AUTO 22022G30KT 10SM CLR 29/19 A2986 RMK AO2 PK WND 21035/1940 SLP109 T02890194
2:53 pm
V
84 °F 10 mi - 240°   240° 17 30 kt METAR KMSS 211853Z AUTO 24017G30KT 10SM FEW046 29/20 A2986 RMK AO2 PK WND 23030/1847 SLP108 T02940200
1:53 pm
V
84 °F 10 mi - 230°   230° 19 26 kt METAR KMSS 211753Z AUTO 23019G26KT 10SM CLR 29/19 A2984 RMK AO2 PK WND 22026/1729 SLP103 T02940194 10300 20239 53006
12:53 pm
V
84 °F 10 mi - 230°   230° 16 24 kt METAR KMSS 211653Z AUTO 23016G24KT 10SM CLR 29/20 A2983 RMK AO2 SLP098 T02940200
11:53 am
V
84 °F 10 mi - 210°   210° 14 21 kt METAR KMSS 211553Z AUTO 21014G21KT 10SM CLR 29/21 A2982 RMK AO2 SLP097 T02890206
10:53 am
V
82 °F 10 mi - 230°   230° 9 21 kt METAR KMSS 211453Z AUTO 23009G21KT 10SM CLR 28/20 A2982 RMK AO2 SLP097 T02780200 50002
9:53 am
V
81 °F 10 mi - 220°   220° 13 20 kt METAR KMSS 211353Z AUTO 22013G20KT 10SM CLR 27/19 A2984 RMK AO2 SLP102 T02670194
8:53 am
V
77 °F 10 mi - 220°   220° 14 21 kt METAR KMSS 211253Z AUTO 22014G21KT 10SM SCT100 25/19 A2983 RMK AO2 SLP100 T02500189
7:53 am
V
75 °F 10 mi - 220°   220° 14 22 kt METAR KMSS 211153Z AUTO 22014G22KT 10SM CLR 24/18 A2982 RMK AO2 SLP095 T02390183 10244 20217 53019
6:53 am
V
73 °F 10 mi - 220°   220° 12 kt METAR KMSS 211053Z AUTO 22012KT 10SM CLR 23/18 A2980 RMK AO2 SLP087 T02330178
5:53 am
V
73 °F 10 mi - 210°   210° 10 kt METAR KMSS 210953Z AUTO 21010KT 10SM CLR 23/18 A2978 RMK AO2 SLP081 T02280178
4:53 am
V
73 °F 10 mi 6,000 ft 200°   200° 8 kt METAR KMSS 210853Z AUTO 20008KT 10SM BKN060 23/18 A2976 RMK AO2 SLP076 T02280178 53007
Older data

Download our app

Easy access to all aviation weather on your mobile phone and tablet.
With many features not available on the website, like offline support and a personal airport list.

We and third parties follow your internet behavior on our website with cookies. If you continue, we assume you agree with our cookie policy. Learn more